Alum Ridge, VA

8:32 PM EDT on March 27, 2015 (GMT -0400)
Floyd Co. Dept. of Emer. Mgmt. EOC - VA | | Change Station
CLOSE
Current Station
Personal Weather Station
Location: Floyd, VA
Elevation: 2470 ft
Nearby Weather Stations

Elev 2470 ft 36.91 °N, 80.32 °W | Updated 4 seconds ago

Overcast
Overcast
36.8 °F
Feels Like 34 °F
N
4.0
Wind Variable Wind from NNW
Gusts 10.0 mph

Today
High -- | Low -- °F
--% Chance of Precip.
Yesterday
High -- | Low -- °F
Precip. -- in
7:14 AM 7:39 PM
First Quarter, 57% visible
Pressure 29.81 in
Visibility 10.0 miles
Clouds Overcast 5000 ft
Windchill 34 °F
Dew Point 25 °F
Humidity 61%
Rainfall 0.00 in
Snow Depth Not available.
UV 0 out of 12
Pollen 6.40 out of 12
Air Quality Not available.
Flu Activity Not available.
METAR KBCB 280015Z AUTO 33006KT 10SM OVC050 04/M06 A2981 RMK AO2 T00351058

More Conditions Fewer Conditions

Pressure 29.81 in
Visibility 10.0 miles
Clouds Overcast 5000 ft
Windchill 34 °F
Dew Point 25 °F
Humidity 61%
Rainfall 0.00 in
Snow Depth Not available.
UV 0 out of 12
Pollen 6.40 out of 12
Air Quality Not available.
Flu Activity Not available.
METAR KBCB 280015Z AUTO 33006KT 10SM OVC050 04/M06 A2981 RMK AO2 T00351058

More Conditions Fewer Conditions

10-Day Weather Forecast

Almanac

Astronomy

Mar. 27, 2015 Rise Set
Actual Time
Civil Twilight
Nautical Twilight
Astronomical Twilight
Moon
Length of Visible Light
Length of Day
Tomorrow will be .
, % of the Moon is Illuminated

Today's Extremes

State Highs State Lows

Community

WunderPhotos

Upload Photos

1,808,887 photos uploaded!

WunderBlogs® & News

Nearby

Air Quality

  Air Quality AQ Index Pollutant
Not available.

Snow Depth

Station Depth Elevation

Earthquake Activity

City Distance Mag. Time & Date
Minimum magnitude displayed is 2.5.

Coastal Water Temperatures

Place Temperature

Stations

Nearby Weather Stations

Station Location Temp. Windchill Dew Point Humidity Wind Precip. Elev Updated Type